Time;durP1;ratioP1;P1;durP2;ratioP2;P2;SDS_P1;SDS_P2;PMS_P1;PMS_P2;Temp;Humidity;BMP_temperature;BMP_pressure;BME280_temperature;BME280_humidity;BME280_pressure;Samples;Min_cycle;Max_cycle;Signal;HPM_P1;HPM_P2
2022/04/24 00:00:46;;;;;;;18.40;12.60;;;;;;;6.55;63.41;99273.36;130328;1268;109200;-76
2022/04/24 00:03:52;;;;;;;18.70;13.00;;;;;;;6.46;63.59;99273.45;130420;1266;108722;-75
2022/04/24 00:06:58;;;;;;;18.90;13.10;;;;;;;6.36;63.12;99281.79;130447;1267;108960;-75
2022/04/24 00:10:03;;;;;;;19.40;12.30;;;;;;;6.26;63.32;99282.91;130348;1268;108779;-74
2022/04/24 00:13:11;;;;;;;18.80;13.20;;;;;;;6.17;63.28;99283.47;130513;1268;107697;-74
2022/04/24 00:16:16;;;;;;;20.70;13.30;;;;;;;6.06;63.43;99286.60;130507;1267;108650;-76
2022/04/24 00:19:22;;;;;;;19.10;13.10;;;;;;;5.99;63.35;99287.70;130437;1267;108769;-76
2022/04/24 00:22:28;;;;;;;19.50;12.60;;;;;;;5.90;63.36;99291.45;130447;1267;108673;-75
2022/04/24 00:25:33;;;;;;;20.00;13.40;;;;;;;5.83;63.36;99290.17;130547;1267;108691;-76
2022/04/24 00:28:39;;;;;;;20.30;12.80;;;;;;;5.76;63.42;99293.38;130480;1267;108825;-78
2022/04/24 00:31:44;;;;;;;20.30;13.30;;;;;;;5.66;63.33;99289.84;130353;1268;108795;-79
2022/04/24 00:34:50;;;;;;;20.70;12.80;;;;;;;5.60;63.47;99288.67;130447;1267;108703;-78
2022/04/24 00:37:55;;;;;;;20.40;13.60;;;;;;;5.55;63.29;99293.42;130414;1268;108092;-78
2022/04/24 00:41:01;;;;;;;21.00;14.10;;;;;;;5.48;63.39;99289.98;130490;1266;108945;-76
2022/04/24 00:44:07;;;;;;;22.20;14.10;;;;;;;5.43;63.38;99292.08;130523;1268;108632;-74
2022/04/24 00:47:31;;;;;;;18.60;12.90;;;;;;;5.39;63.42;99292.74;130513;1266;108608;-73
2022/04/24 00:50:40;;;;;;;21.00;14.10;;;;;;;5.30;63.40;99291.64;130494;1268;107428;-77
2022/04/24 00:53:45;;;;;;;19.70;13.20;;;;;;;5.24;63.32;99291.21;130459;1267;107703;-78
2022/04/24 00:56:51;;;;;;;17.80;12.20;;;;;;;5.17;63.57;99286.86;130446;1268;108622;-76
2022/04/24 00:59:56;;;;;;;19.90;12.20;;;;;;;5.12;63.56;99282.71;130420;1268;108702;-76
2022/04/24 01:03:02;;;;;;;17.90;11.40;;;;;;;5.11;63.63;99278.78;130443;1267;109630;-77
2022/04/24 01:06:08;;;;;;;21.20;12.80;;;;;;;5.11;63.48;99275.91;130399;1267;108641;-77
2022/04/24 01:09:17;;;;;;;19.40;13.00;;;;;;;5.13;63.50;99275.08;130453;1267;108876;-74
2022/04/24 01:12:23;;;;;;;21.70;13.40;;;;;;;5.16;63.50;99278.89;130530;1268;108696;-75
2022/04/24 01:15:28;;;;;;;21.00;12.50;;;;;;;5.14;63.46;99275.58;130556;1268;109014;-74
2022/04/24 01:18:35;;;;;;;17.80;12.20;;;;;;;5.11;63.60;99272.80;130483;1267;108669;-78
2022/04/24 01:21:43;;;;;;;19.60;12.10;;;;;;;5.05;63.43;99266.83;130383;1267;108702;-78
2022/04/24 01:24:49;;;;;;;20.30;13.70;;;;;;;4.98;63.54;99265.34;130485;1268;108630;-79
2022/04/24 01:27:55;;;;;;;18.10;12.70;;;;;;;4.95;63.54;99267.63;130440;1268;108570;-79
2022/04/24 01:31:01;;;;;;;18.80;12.80;;;;;;;4.92;63.49;99267.72;130448;1268;108958;-80
2022/04/24 01:34:07;;;;;;;20.00;12.20;;;;;;;4.87;63.57;99273.24;130493;1268;108495;-77
2022/04/24 01:37:12;;;;;;;19.40;13.10;;;;;;;4.83;63.50;99276.77;130441;1267;107697;-76
2022/04/24 01:40:20;;;;;;;16.70;11.40;;;;;;;4.77;63.41;99272.53;130465;1267;106877;-77
2022/04/24 01:43:26;;;;;;;19.10;12.00;;;;;;;4.73;63.49;99276.44;130447;1267;108698;-77
2022/04/24 01:46:31;;;;;;;18.30;12.30;;;;;;;4.67;63.41;99276.41;130547;1267;108687;-75
2022/04/24 01:49:37;;;;;;;18.20;12.30;;;;;;;4.61;63.44;99273.46;130466;1268;108740;-77
2022/04/24 01:52:42;;;;;;;21.00;13.20;;;;;;;4.54;63.44;99274.83;130448;1268;108881;-76
2022/04/24 01:55:48;;;;;;;20.20;13.40;;;;;;;4.48;63.59;99269.17;130455;1266;108645;-77
2022/04/24 01:58:54;;;;;;;21.10;13.60;;;;;;;4.43;63.66;99270.04;130506;1266;108720;-75
2022/04/24 02:01:59;;;;;;;22.00;13.80;;;;;;;4.38;63.62;99268.85;130548;1268;108854;-76
2022/04/24 02:05:06;;;;;;;21.40;13.00;;;;;;;4.37;63.76;99272.52;130471;1267;107643;-77
2022/04/24 02:08:11;;;;;;;17.90;12.50;;;;;;;4.35;63.72;99274.45;130435;1268;108710;-77
2022/04/24 02:11:17;;;;;;;18.00;12.60;;;;;;;4.31;63.77;99275.09;130429;1268;108784;-78
2022/04/24 02:14:22;;;;;;;19.50;13.10;;;;;;;4.27;63.71;99269.52;130370;1267;109668;-78
2022/04/24 02:17:28;;;;;;;19.40;12.20;;;;;;;4.24;63.87;99269.96;130467;1268;108280;-76
2022/04/24 02:20:33;;;;;;;18.60;12.50;;;;;;;4.21;63.82;99268.10;130447;1268;107687;-77
2022/04/24 02:23:39;;;;;;;19.20;12.50;;;;;;;4.14;63.90;99266.91;130480;1268;108541;-77
2022/04/24 02:26:44;;;;;;;20.80;12.60;;;;;;;4.09;64.08;99260.02;130445;1268;108811;-76
2022/04/24 02:29:49;;;;;;;19.10;11.90;;;;;;;4.04;64.13;99260.83;130453;1267;108849;-76
2022/04/24 02:32:58;;;;;;;17.00;11.10;;;;;;;4.04;64.04;99265.87;130455;1267;108846;-75
2022/04/24 02:36:03;;;;;;;15.40;10.00;;;;;;;4.07;64.10;99266.36;130489;1268;108552;-75
2022/04/24 02:39:09;;;;;;;17.70;11.70;;;;;;;4.14;63.98;99267.14;130431;1266;108764;-76
2022/04/24 02:42:14;;;;;;;18.20;11.60;;;;;;;4.19;63.88;99269.70;130429;1268;108766;-76
2022/04/24 02:45:21;;;;;;;17.70;11.50;;;;;;;4.21;63.96;99264.89;130487;1266;108522;-77
2022/04/24 02:48:27;;;;;;;16.80;11.70;;;;;;;4.23;63.78;99265.77;130458;1268;107519;-77
2022/04/24 02:51:33;;;;;;;16.90;10.70;;;;;;;4.21;63.88;99259.80;130469;1268;108816;-76
2022/04/24 02:54:39;;;;;;;17.60;11.40;;;;;;;4.21;63.87;99263.34;130405;1267;108750;-76
2022/04/24 02:57:46;;;;;;;20.00;10.90;;;;;;;4.19;63.94;99262.48;130485;1268;108672;-76
2022/04/24 03:00:51;;;;;;;16.60;10.70;;;;;;;4.17;63.99;99257.58;130534;1267;108971;-76
2022/04/24 03:03:56;;;;;;;16.90;11.50;;;;;;;4.12;63.95;99255.79;130463;1268;108682;-77
2022/04/24 03:07:02;;;;;;;16.50;11.00;;;;;;;4.09;63.90;99262.29;130419;1268;107636;-76
2022/04/24 03:10:09;;;;;;;17.70;11.80;;;;;;;4.04;63.86;99261.50;130449;1267;108448;-76
2022/04/24 03:13:15;;;;;;;19.00;11.60;;;;;;;3.96;63.91;99257.63;130513;1267;107304;-76
2022/04/24 03:16:20;;;;;;;19.80;11.90;;;;;;;3.91;64.04;99254.31;130566;1268;108674;-76
2022/04/24 03:19:26;;;;;;;16.40;11.40;;;;;;;3.89;63.93;99258.60;130536;1268;108773;-77
2022/04/24 03:22:33;;;;;;;17.20;11.40;;;;;;;3.86;64.08;99255.71;130518;1267;108793;-75
2022/04/24 03:25:38;;;;;;;16.30;11.60;;;;;;;3.83;64.19;99252.09;130534;1268;108736;-76
2022/04/24 03:28:44;;;;;;;17.20;11.80;;;;;;;3.81;64.23;99253.14;130543;1268;108869;-76
2022/04/24 03:31:50;;;;;;;21.00;12.10;;;;;;;3.82;64.30;99253.05;130543;1268;107591;-77
2022/04/24 03:34:55;;;;;;;19.90;12.90;;;;;;;3.80;64.34;99257.61;130526;1268;108719;-77
2022/04/24 03:38:01;;;;;;;22.30;14.10;;;;;;;3.80;64.37;99260.98;130539;1268;107705;-76
2022/04/24 03:41:06;;;;;;;20.40;13.20;;;;;;;3.80;64.48;99259.72;130348;1267;108882;-77
2022/04/24 03:44:12;;;;;;;18.30;13.00;;;;;;;3.81;64.54;99267.02;130525;1268;107399;-78
2022/04/24 03:47:18;;;;;;;18.30;12.00;;;;;;;3.83;64.51;99268.05;130526;1267;107633;-78
2022/04/24 03:50:24;;;;;;;17.60;11.30;;;;;;;3.84;64.63;99262.92;130527;1267;107594;-77
2022/04/24 03:53:29;;;;;;;17.00;11.10;;;;;;;3.87;64.45;99270.52;130500;1266;106993;-77
2022/04/24 03:56:35;;;;;;;20.10;11.30;;;;;;;3.92;64.57;99263.60;130397;1267;109759;-74
2022/04/24 03:59:40;;;;;;;19.80;10.70;;;;;;;4.01;64.61;99267.80;130547;1268;108884;-74
2022/04/24 04:02:47;;;;;;;15.70;9.50;;;;;;;4.12;64.60;99269.60;130544;1268;108957;-77
2022/04/24 04:05:53;;;;;;;18.10;10.90;;;;;;;4.25;64.39;99271.80;130729;1267;108455;-75
2022/04/24 04:08:58;;;;;;;19.40;11.50;;;;;;;4.37;64.46;99269.32;130374;1268;108949;-79
2022/04/24 04:12:06;;;;;;;19.00;11.50;;;;;;;4.45;64.45;99272.13;130549;1268;109486;-77
2022/04/24 04:15:12;;;;;;;38.70;18.90;;;;;;;4.55;64.55;99272.23;130411;1268;108906;-71
2022/04/24 04:18:17;;;;;;;19.70;13.50;;;;;;;4.67;64.57;99269.17;130520;1265;108738;-71
2022/04/24 04:21:23;;;;;;;19.00;11.80;;;;;;;4.80;64.77;99263.71;130509;1267;108924;-71
2022/04/24 04:24:28;;;;;;;20.00;13.20;;;;;;;4.92;65.06;99268.02;130494;1267;108635;-72
2022/04/24 04:27:34;;;;;;;21.40;13.50;;;;;;;5.04;65.32;99270.09;130521;1267;108636;-71
2022/04/24 04:30:39;;;;;;;25.20;15.40;;;;;;;5.22;65.16;99269.33;130540;1268;109095;-72
2022/04/24 04:33:45;;;;;;;23.10;15.40;;;;;;;5.42;65.27;99266.90;130395;1268;108756;-73
2022/04/24 04:36:50;;;;;;;19.60;14.00;;;;;;;5.61;65.87;99263.69;130458;1268;108683;-73
2022/04/24 04:39:56;;;;;;;23.10;15.80;;;;;;;5.75;66.67;99260.10;130379;1267;108692;-74
2022/04/24 04:43:01;;;;;;;26.60;14.20;;;;;;;5.87;67.86;99258.80;130516;1268;108828;-75
2022/04/24 04:46:06;;;;;;;22.50;14.60;;;;;;;6.00;67.46;99251.73;130486;1267;108620;-76
2022/04/24 04:49:12;;;;;;;23.40;15.40;;;;;;;6.17;67.89;99250.43;130521;1268;108665;-75
2022/04/24 04:52:17;;;;;;;22.00;14.30;;;;;;;6.36;66.93;99247.48;130537;1268;108796;-77
2022/04/24 04:55:23;;;;;;;24.00;15.50;;;;;;;6.60;67.10;99248.20;130374;1267;107556;-78
2022/04/24 04:58:28;;;;;;;23.60;15.00;;;;;;;6.85;66.85;99244.81;130502;1267;108472;-76
2022/04/24 05:01:34;;;;;;;23.20;15.50;;;;;;;7.08;66.80;99247.48;130515;1267;109108;-78
2022/04/24 05:04:43;;;;;;;23.70;15.30;;;;;;;7.25;66.90;99247.98;130517;1268;108600;-73
2022/04/24 05:07:49;;;;;;;23.90;16.10;;;;;;;7.40;66.46;99247.73;130499;1267;108928;-72
2022/04/24 05:10:54;;;;;;;21.80;15.20;;;;;;;7.56;66.21;99253.66;130483;1268;108668;-73
2022/04/24 05:14:00;;;;;;;20.90;14.60;;;;;;;7.76;66.30;99253.59;130421;1267;108829;-72
2022/04/24 05:17:06;;;;;;;22.40;14.70;;;;;;;7.94;66.50;99251.70;130525;1268;108944;-76
2022/04/24 05:20:13;;;;;;;22.50;15.20;;;;;;;8.02;66.56;99246.25;130516;1267;109027;-73
2022/04/24 05:23:18;;;;;;;19.70;13.10;;;;;;;8.04;66.53;99241.06;130364;1267;108405;-73
2022/04/24 05:26:24;;;;;;;17.90;12.30;;;;;;;8.10;66.47;99233.02;130674;1267;107759;-75
2022/04/24 05:29:29;;;;;;;19.60;13.90;;;;;;;8.27;66.34;99239.04;130567;1268;108853;-71
2022/04/24 05:32:42;;;;;;;22.20;13.40;;;;;;;8.44;66.46;99232.98;130479;1267;108729;-74
2022/04/24 05:35:49;;;;;;;17.90;12.80;;;;;;;8.66;66.37;99234.85;130724;1267;107590;-70
2022/04/24 05:38:54;;;;;;;18.60;13.70;;;;;;;8.85;66.23;99229.33;130303;1268;108788;-71
2022/04/24 05:42:00;;;;;;;25.90;14.80;;;;;;;8.91;66.34;99229.20;130453;1268;109214;-71
2022/04/24 05:45:10;;;;;;;17.80;14.00;;;;;;;8.95;66.43;99228.20;130532;1267;108747;-71
2022/04/24 05:48:18;;;;;;;45.30;22.70;;;;;;;9.01;66.55;99236.23;130493;1267;108801;-71
2022/04/24 05:51:23;;;;;;;24.70;16.70;;;;;;;9.01;66.69;99236.24;130488;1268;109049;-73
2022/04/24 05:54:30;;;;;;;20.20;14.00;;;;;;;9.02;67.01;99239.95;130527;1267;108508;-72
2022/04/24 05:57:35;;;;;;;20.70;15.40;;;;;;;9.05;66.68;99239.73;130520;1266;108641;-72
2022/04/24 06:00:41;;;;;;;16.00;11.80;;;;;;;9.12;67.02;99242.11;130613;1268;108891;-74
2022/04/24 06:03:47;;;;;;;11.90;9.40;;;;;;;9.24;66.68;99241.55;130496;1268;108846;-76
2022/04/24 06:06:53;;;;;;;12.50;9.40;;;;;;;9.40;66.85;99248.77;130502;1267;108696;-77
2022/04/24 06:09:58;;;;;;;16.60;10.50;;;;;;;9.51;66.64;99251.88;130448;1268;108852;-74
2022/04/24 06:13:04;;;;;;;15.10;10.30;;;;;;;9.61;66.74;99249.19;130463;1266;109982;-77
2022/04/24 06:16:09;;;;;;;14.70;11.50;;;;;;;9.70;66.40;99252.98;130485;1268;107458;-75
2022/04/24 06:19:15;;;;;;;14.50;10.50;;;;;;;9.72;66.64;99253.28;130566;1266;108873;-79
2022/04/24 06:22:21;;;;;;;25.80;19.20;;;;;;;9.69;66.83;99253.73;130768;1267;108627;-75
2022/04/24 06:25:28;;;;;;;15.60;10.60;;;;;;;9.73;67.07;99262.03;130555;1267;108648;-76
2022/04/24 06:28:33;;;;;;;13.30;10.10;;;;;;;9.73;66.74;99263.56;130666;1267;108708;-75
2022/04/24 06:31:39;;;;;;;11.70;9.60;;;;;;;9.75;66.95;99265.20;130424;1268;108723;-78
2022/04/24 06:34:44;;;;;;;13.40;9.80;;;;;;;9.84;66.64;99262.71;130459;1268;108863;-80
2022/04/24 06:37:53;;;;;;;276.70;200.60;;;;;;;9.93;66.56;99260.89;130440;1267;108967;-78
2022/04/24 06:40:58;;;;;;;68.60;45.80;;;;;;;10.00;66.39;99259.45;130494;1268;108854;-77
2022/04/24 06:44:04;;;;;;;26.00;17.70;;;;;;;10.10;66.60;99261.44;130388;1267;108952;-78
2022/04/24 06:47:09;;;;;;;13.50;10.40;;;;;;;10.19;66.36;99262.73;130413;1268;108861;-76
2022/04/24 06:50:15;;;;;;;10.40;7.50;;;;;;;10.27;66.32;99258.25;130476;1267;108957;-81
2022/04/24 06:53:21;;;;;;;11.30;8.50;;;;;;;10.38;66.14;99265.41;130449;1267;108857;-80
2022/04/24 06:56:27;;;;;;;11.00;7.90;;;;;;;10.51;66.27;99260.83;130473;1267;108950;-81
2022/04/24 06:59:32;;;;;;;11.20;8.10;;;;;;;10.66;66.22;99262.18;130521;1268;108404;-77
2022/04/24 07:02:41;;;;;;;36.80;21.60;;;;;;;10.75;65.70;99257.12;130422;1266;107635;-80
2022/04/24 07:05:47;;;;;;;16.30;12.00;;;;;;;10.86;66.12;99254.13;130427;1268;108835;-76
2022/04/24 07:08:52;;;;;;;10.80;8.30;;;;;;;10.93;65.48;99254.38;130465;1268;108876;-79
2022/04/24 07:11:58;;;;;;;8.80;7.50;;;;;;;10.99;65.50;99257.35;130522;1268;108637;-78
2022/04/24 07:15:03;;;;;;;8.60;6.90;;;;;;;11.06;65.31;99252.92;130406;1268;108739;-77
2022/04/24 07:18:10;;;;;;;9.00;7.00;;;;;;;11.06;65.52;99253.88;130449;1268;108664;-79
2022/04/24 07:21:16;;;;;;;8.00;6.40;;;;;;;11.10;64.92;99251.55;130804;1266;108839;-82
2022/04/24 07:24:21;;;;;;;10.40;7.20;;;;;;;11.07;64.80;99252.59;130809;1268;108530;-80
2022/04/24 07:27:27;;;;;;;12.20;8.10;;;;;;;11.10;64.71;99248.08;130448;1268;108974;-79
2022/04/24 07:30:33;;;;;;;8.70;6.70;;;;;;;11.13;65.04;99249.54;130452;1268;108951;-79
2022/04/24 07:33:38;;;;;;;7.20;6.20;;;;;;;11.19;64.74;99251.66;130465;1265;108794;-80
2022/04/24 07:36:43;;;;;;;6.90;5.80;;;;;;;11.28;64.92;99254.15;130714;1267;108847;-79
2022/04/24 07:39:49;;;;;;;14.60;11.30;;;;;;;11.27;64.52;99254.63;130555;1267;106632;-78
2022/04/24 07:42:56;;;;;;;5.30;4.70;;;;;;;11.27;64.63;99253.55;130617;1268;108548;-81
2022/04/24 07:46:02;;;;;;;4.90;3.90;;;;;;;11.36;64.41;99245.42;130649;1268;109093;-81
2022/04/24 07:49:07;;;;;;;5.70;4.60;;;;;;;11.45;63.29;99245.60;130730;1266;108787;-78
2022/04/24 07:52:12;;;;;;;4.00;3.00;;;;;;;11.51;63.81;99238.13;130730;1266;108951;-79
2022/04/24 07:55:22;;;;;;;3.70;3.30;;;;;;;11.64;63.79;99236.73;130570;1267;108917;-78
2022/04/24 07:58:27;;;;;;;4.70;3.80;;;;;;;11.74;63.53;99234.81;130452;1268;108754;-78
2022/04/24 08:01:33;;;;;;;4.60;4.10;;;;;;;11.79;63.70;99234.68;130424;1267;108765;-75
2022/04/24 08:04:38;;;;;;;4.20;3.50;;;;;;;11.87;63.41;99225.33;130646;1265;108737;-77
2022/04/24 08:07:44;;;;;;;4.60;3.30;;;;;;;11.93;62.94;99229.25;130494;1265;108848;-76
2022/04/24 08:10:51;;;;;;;3.80;3.10;;;;;;;12.02;62.48;99227.46;130565;1265;108703;-79
2022/04/24 08:13:56;;;;;;;4.10;3.30;;;;;;;12.06;62.73;99217.42;130669;1265;108717;-77
2022/04/24 08:17:02;;;;;;;10.10;7.50;;;;;;;12.13;62.28;99210.98;130529;1265;108637;-75
2022/04/24 08:20:09;;;;;;;4.00;3.50;;;;;;;12.14;62.28;99206.41;130628;1265;108703;-75
2022/04/24 08:23:16;;;;;;;2.00;1.80;;;;;;;12.22;62.18;99206.46;130628;1264;108713;-74
2022/04/24 08:26:22;;;;;;;3.20;2.70;;;;;;;12.31;61.68;99212.48;130500;1265;108655;-78
2022/04/24 08:29:27;;;;;;;3.60;3.10;;;;;;;12.36;61.63;99208.53;130564;1265;108897;-77
2022/04/24 08:32:33;;;;;;;5.20;4.60;;;;;;;12.40;61.58;99208.28;130609;1265;108258;-78
2022/04/24 08:35:38;;;;;;;4.70;4.10;;;;;;;12.38;60.75;99203.28;130579;1265;109182;-79
2022/04/24 08:38:44;;;;;;;13.90;10.70;;;;;;;12.45;61.02;99201.84;130486;1265;108681;-78
2022/04/24 08:41:50;;;;;;;6.20;4.50;;;;;;;12.47;61.24;99195.80;130585;1265;108685;-80
2022/04/24 08:44:56;;;;;;;5.30;4.30;;;;;;;12.48;61.34;99193.80;130494;1265;108676;-79
2022/04/24 08:48:04;;;;;;;4.40;4.00;;;;;;;12.48;61.12;99197.26;130689;1265;106733;-77
2022/04/24 08:51:10;;;;;;;4.70;4.00;;;;;;;12.48;60.61;99192.93;130579;1265;108673;-76
2022/04/24 08:54:16;;;;;;;3.90;3.50;;;;;;;12.47;60.53;99188.77;130606;1265;108659;-79
2022/04/24 08:57:26;;;;;;;4.30;3.80;;;;;;;12.52;60.68;99186.46;130677;1265;108438;-82
2022/04/24 09:00:33;;;;;;;4.30;3.80;;;;;;;12.53;60.09;99187.50;130727;1265;107663;-74
2022/04/24 09:03:39;;;;;;;5.70;4.80;;;;;;;12.58;61.05;99188.45;130505;1265;108900;-75
2022/04/24 09:06:55;;;;;;;5.20;3.80;;;;;;;12.64;60.46;99192.86;130523;1265;107603;-79
2022/04/24 09:10:03;;;;;;;4.00;3.60;;;;;;;12.75;60.51;99200.45;130507;1265;108791;-78
2022/04/24 09:13:09;;;;;;;5.20;4.10;;;;;;;12.81;59.74;99201.45;130515;1265;108958;-76
2022/04/24 09:16:15;;;;;;;3.80;3.30;;;;;;;12.85;59.53;99202.06;130752;1265;108689;-79
2022/04/24 09:19:21;;;;;;;4.00;3.60;;;;;;;12.90;60.18;99199.60;130525;1265;108747;-77
2022/04/24 09:22:27;;;;;;;4.70;3.80;;;;;;;13.06;59.94;99199.92;130574;1265;108623;-77
2022/04/24 09:25:41;;;;;;;4.10;3.30;;;;;;;13.17;59.58;99201.98;130465;1265;108973;-75
2022/04/24 09:28:46;;;;;;;3.80;3.20;;;;;;;13.30;59.52;99199.77;130510;1265;109478;-77
2022/04/24 09:31:53;;;;;;;4.40;3.30;;;;;;;13.43;59.69;99195.52;130555;1265;108739;-77
2022/04/24 09:34:59;;;;;;;3.70;3.30;;;;;;;13.56;59.27;99197.40;130562;1266;108719;-78
2022/04/24 09:38:17;;;;;;;5.70;3.30;;;;;;;13.70;59.42;99194.51;130603;1265;108698;-76
2022/04/24 09:41:24;;;;;;;3.70;3.00;;;;;;;13.83;59.19;99197.98;130659;1265;108722;-78
2022/04/24 09:44:38;;;;;;;3.40;3.10;;;;;;;13.89;59.35;99200.81;130686;1265;108854;-77
2022/04/24 09:47:44;;;;;;;3.40;3.10;;;;;;;14.00;59.03;99204.52;130572;1265;108790;-79
2022/04/24 09:50:51;;;;;;;3.90;3.00;;;;;;;14.13;58.99;99202.21;130544;1265;108873;-81
2022/04/24 09:54:01;;;;;;;3.10;2.80;;;;;;;14.26;58.53;99200.80;130503;1265;108657;-78
2022/04/24 09:57:07;;;;;;;3.40;3.10;;;;;;;14.33;57.76;99205.43;130494;1265;108616;-77
2022/04/24 10:00:15;;;;;;;4.80;3.20;;;;;;;14.43;58.37;99203.42;130542;1265;108733;-72
2022/04/24 10:03:22;;;;;;;4.90;3.40;;;;;;;14.66;58.21;99197.63;130469;1265;107608;-74
2022/04/24 10:06:27;;;;;;;3.70;3.30;;;;;;;14.86;58.26;99194.33;130516;1265;109109;-73
2022/04/24 10:09:35;;;;;;;2.90;2.60;;;;;;;15.11;58.24;99191.99;130534;1265;108846;-77
2022/04/24 10:12:43;;;;;;;2.50;2.30;;;;;;;15.33;57.27;99189.14;130471;1265;107534;-77
2022/04/24 10:15:57;;;;;;;3.20;2.50;;;;;;;15.44;57.13;99184.13;130551;1265;108867;-78
2022/04/24 10:19:11;;;;;;;3.00;2.70;;;;;;;15.48;56.55;99185.17;130428;1268;109004;-79
2022/04/24 10:22:27;;;;;;;2.90;2.50;;;;;;;15.45;56.79;99186.60;130527;1268;107030;-77
2022/04/24 10:25:37;;;;;;;4.50;3.50;;;;;;;15.44;57.01;99177.80;130497;1265;108799;-79
2022/04/24 10:28:45;;;;;;;3.40;3.10;;;;;;;15.44;56.54;99181.09;130652;1265;108650;-78
2022/04/24 10:31:52;;;;;;;3.30;2.90;;;;;;;15.40;56.51;99185.66;130540;1265;108542;-76
2022/04/24 10:34:57;;;;;;;2.90;2.60;;;;;;;15.39;56.52;99184.02;130433;1266;108833;-73
2022/04/24 10:38:09;;;;;;;3.40;2.70;;;;;;;15.40;56.41;99180.16;130420;1266;108730;-74
2022/04/24 10:41:19;;;;;;;3.10;2.80;;;;;;;15.41;56.24;99179.40;130435;1268;108660;-73
2022/04/24 10:44:24;;;;;;;3.50;3.00;;;;;;;15.31;55.61;99182.61;130540;1268;108899;-75
2022/04/24 10:47:43;;;;;;;3.20;2.90;;;;;;;15.26;55.96;99177.47;130520;1265;108640;-73
2022/04/24 10:50:52;;;;;;;3.20;2.80;;;;;;;15.20;55.60;99165.57;130486;1266;108697;-71
2022/04/24 10:54:00;;;;;;;3.20;2.90;;;;;;;15.32;55.77;99162.85;130517;1268;108559;-73
2022/04/24 10:57:17;;;;;;;3.00;2.70;;;;;;;15.41;55.56;99154.71;130468;1266;108636;-73
2022/04/24 11:00:28;;;;;;;3.20;2.60;;;;;;;15.42;55.20;99151.11;130500;1266;108692;-70
2022/04/24 11:03:41;;;;;;;3.00;2.70;;;;;;;15.45;55.27;99146.06;130270;1265;448933;-78
2022/04/24 11:06:56;;;;;;;3.10;2.60;;;;;;;15.41;54.86;99139.47;130578;1267;107444;-70
2022/04/24 11:10:09;;;;;;;2.80;2.50;;;;;;;15.39;54.92;99133.42;130560;1265;108855;-70
2022/04/24 11:13:16;;;;;;;2.60;2.40;;;;;;;15.34;54.19;99129.14;130530;1268;108846;-76
2022/04/24 11:16:22;;;;;;;2.80;2.00;;;;;;;15.26;54.03;99131.61;130557;1268;108855;-76
2022/04/24 11:19:28;;;;;;;2.80;2.50;;;;;;;15.23;54.16;99129.60;130454;1268;108728;-77
2022/04/24 11:22:34;;;;;;;2.90;2.40;;;;;;;15.24;54.80;99127.95;130449;1268;108297;-78
2022/04/24 11:25:41;;;;;;;2.70;2.50;;;;;;;15.48;55.07;99122.48;130431;1267;108855;-77
2022/04/24 11:28:49;;;;;;;3.30;2.80;;;;;;;15.69;54.49;99123.40;130429;1268;109008;-75
2022/04/24 11:31:56;;;;;;;3.90;2.90;;;;;;;15.76;52.67;99115.64;130459;1268;108754;-77
2022/04/24 11:35:01;;;;;;;4.70;3.30;;;;;;;15.75;53.72;99113.45;130411;1268;108820;-76
2022/04/24 11:38:08;;;;;;;5.30;3.60;;;;;;;15.88;55.13;99099.73;130676;1267;108464;-76
2022/04/24 11:41:15;;;;;;;2.70;2.50;;;;;;;16.06;53.64;99100.11;130534;1268;108934;-78
2022/04/24 11:51:19;;;;;;;3.20;2.90;;;;;;;15.45;53.07;99103.92;130475;1267;108754;-78
2022/04/24 11:54:25;;;;;;;3.30;3.00;;;;;;;15.48;52.78;99092.46;130489;1268;109134;-80
2022/04/24 11:57:31;;;;;;;4.00;3.10;;;;;;;15.54;52.67;99081.39;130536;1267;108754;-78
2022/04/24 12:00:38;;;;;;;3.70;3.20;;;;;;;15.43;52.27;99081.31;130455;1266;109474;-77
2022/04/24 12:03:46;;;;;;;3.40;3.10;;;;;;;15.19;52.58;99082.21;130584;1268;108499;-72
2022/04/24 12:07:00;;;;;;;4.30;3.20;;;;;;;15.17;53.05;99073.71;130377;1268;107676;-69
2022/04/24 12:10:08;;;;;;;4.40;3.30;;;;;;;15.20;52.43;99070.80;130162;1268;108934;-71
2022/04/24 12:13:15;;;;;;;3.20;2.90;;;;;;;15.18;52.16;99069.17;130274;1268;108704;-70
2022/04/24 12:16:25;;;;;;;3.40;2.80;;;;;;;15.19;52.52;99068.04;130167;1268;109038;-71
2022/04/24 12:19:30;;;;;;;3.10;2.80;;;;;;;15.17;52.86;99056.94;130225;1268;108933;-70
2022/04/24 12:22:37;;;;;;;3.30;3.00;;;;;;;15.21;52.40;99052.38;130213;1268;108754;-69
2022/04/24 12:25:51;;;;;;;3.00;2.70;;;;;;;15.23;52.79;99043.94;130191;1268;108787;-70
2022/04/24 12:29:04;;;;;;;4.20;3.20;;;;;;;15.25;52.73;99047.69;130215;1266;108895;-69
2022/04/24 12:32:14;;;;;;;3.50;2.90;;;;;;;15.22;52.30;99049.06;130012;1268;108706;-69
2022/04/24 12:35:30;;;;;;;3.60;2.90;;;;;;;15.19;52.63;99044.07;130460;1268;108661;-69
2022/04/24 12:38:35;;;;;;;2.90;2.70;;;;;;;15.18;52.87;99034.73;130294;1268;108962;-70
2022/04/24 12:41:41;;;;;;;3.00;2.70;;;;;;;15.31;52.65;99036.20;130085;1268;107659;-69
2022/04/24 12:44:47;;;;;;;3.20;2.80;;;;;;;15.40;52.79;99041.78;132459;1266;108670;-76
2022/04/24 12:47:53;;;;;;;4.60;2.80;;;;;;;15.42;52.41;99041.24;134540;1266;108707;-71
2022/04/24 12:50:58;;;;;;;3.90;3.50;;;;;;;15.39;52.42;99039.13;134529;1266;108729;-72
2022/04/24 12:54:04;;;;;;;3.70;3.30;;;;;;;15.41;52.61;99038.06;132525;1266;107162;-70
2022/04/24 12:57:10;;;;;;;3.60;3.10;;;;;;;15.51;52.72;99036.48;130156;1268;107391;-70
2022/04/24 13:00:17;;;;;;;3.20;2.70;;;;;;;15.64;52.40;99039.59;130251;1268;108864;-70
2022/04/24 13:03:24;;;;;;;3.40;3.10;;;;;;;15.81;52.24;99043.58;130270;1268;108804;-70
2022/04/24 13:06:29;;;;;;;3.90;3.20;;;;;;;15.94;52.17;99044.67;130344;1268;108716;-69
2022/04/24 13:09:34;;;;;;;3.60;3.20;;;;;;;15.97;51.79;99041.96;130250;1268;108675;-72
2022/04/24 13:12:40;;;;;;;3.30;3.00;;;;;;;16.04;51.85;99040.80;130413;1268;108892;-72
2022/04/24 13:18:06;;;;;;;4.40;3.20;;;;;;;16.18;51.45;99040.48;130345;1267;108477;-72
2022/04/24 13:19:11;;;;;;;4.20;3.40;;;;;;;16.28;50.78;99050.14;130342;1268;108912;-70
2022/04/24 13:22:17;;;;;;;3.90;3.30;;;;;;;16.34;51.05;99044.45;130203;1268;108748;-70
2022/04/24 13:25:23;;;;;;;3.50;3.10;;;;;;;16.37;50.84;99038.30;130303;1268;108682;-70
2022/04/24 13:28:30;;;;;;;3.60;3.30;;;;;;;16.37;50.52;99030.55;130254;1268;108657;-72
2022/04/24 13:31:35;;;;;;;3.70;3.40;;;;;;;16.35;50.73;99025.38;130318;1268;109023;-70
2022/04/24 13:34:42;;;;;;;3.70;3.30;;;;;;;16.26;50.51;99023.86;130674;1268;108664;-69
2022/04/24 13:41:13;;;;;;;3.80;3.40;;;;;;;16.34;50.54;99014.06;130630;1268;108643;-72
2022/04/24 13:44:18;;;;;;;5.10;3.90;;;;;;;16.49;50.35;99014.66;130414;1268;108852;-70
2022/04/24 13:47:24;;;;;;;4.10;3.70;;;;;;;16.65;50.44;99012.66;130344;1267;107448;-73
2022/04/24 13:50:30;;;;;;;4.60;3.60;;;;;;;16.81;49.86;99008.02;130635;1268;108775;-70
2022/04/24 13:53:36;;;;;;;4.10;3.70;;;;;;;16.90;49.21;99007.51;130459;1268;108673;-72
2022/04/24 13:56:41;;;;;;;4.40;3.80;;;;;;;16.94;48.91;99004.98;130603;1268;108912;-72
2022/04/24 13:59:47;;;;;;;3.90;3.50;;;;;;;16.95;49.69;98998.55;130494;1268;107431;-69
2022/04/24 14:02:52;;;;;;;4.10;3.70;;;;;;;17.00;49.50;99001.51;130309;1268;108883;-71
2022/04/24 14:05:58;;;;;;;4.70;3.40;;;;;;;17.00;49.00;99005.61;130447;1266;108816;-76
2022/04/24 14:09:03;;;;;;;4.00;3.30;;;;;;;16.97;49.35;99007.39;130434;1267;108836;-76
2022/04/24 14:12:11;;;;;;;3.40;3.10;;;;;;;16.96;49.22;98998.70;130611;1268;108594;-70
2022/04/24 14:15:22;;;;;;;3.40;3.10;;;;;;;16.91;48.63;98999.13;130280;1268;108589;-74
2022/04/24 14:18:28;;;;;;;3.50;3.10;;;;;;;16.84;49.02;99002.94;130511;1268;108624;-70
2022/04/24 14:21:33;;;;;;;3.50;3.20;;;;;;;16.78;48.89;99004.34;130746;1268;108825;-69